sensor_id;sensor_type;location;lat;lon;timestamp;temperature;humidity
37412;DHT22;23278;52.110;6.050;2023-11-21T00:01:42;9.40;99.90
37412;DHT22;23278;52.110;6.050;2023-11-21T00:04:08;9.40;99.90
37412;DHT22;23278;52.110;6.050;2023-11-21T00:06:33;9.40;99.90
37412;DHT22;23278;52.110;6.050;2023-11-21T00:08:59;9.40;99.90
37412;DHT22;23278;52.110;6.050;2023-11-21T00:11:26;9.50;99.90
37412;DHT22;23278;52.110;6.050;2023-11-21T00:13:52;9.40;99.90
37412;DHT22;23278;52.110;6.050;2023-11-21T00:16:17;9.40;99.90
37412;DHT22;23278;52.110;6.050;2023-11-21T00:18:44;9.40;99.90
37412;DHT22;23278;52.110;6.050;2023-11-21T00:21:12;9.40;99.90
37412;DHT22;23278;52.110;6.050;2023-11-21T00:23:38;9.50;99.90
37412;DHT22;23278;52.110;6.050;2023-11-21T00:26:04;9.40;99.90
37412;DHT22;23278;52.110;6.050;2023-11-21T00:28:30;9.50;99.90
37412;DHT22;23278;52.110;6.050;2023-11-21T00:30:56;9.40;99.90
37412;DHT22;23278;52.110;6.050;2023-11-21T00:33:22;9.40;99.90
37412;DHT22;23278;52.110;6.050;2023-11-21T00:35:47;9.40;99.90
37412;DHT22;23278;52.110;6.050;2023-11-21T00:38:13;9.30;99.90
37412;DHT22;23278;52.110;6.050;2023-11-21T00:40:39;9.40;99.90
37412;DHT22;23278;52.110;6.050;2023-11-21T00:43:05;9.40;99.90
37412;DHT22;23278;52.110;6.050;2023-11-21T00:45:31;9.40;99.90
37412;DHT22;23278;52.110;6.050;2023-11-21T00:47:57;9.30;99.90
37412;DHT22;23278;52.110;6.050;2023-11-21T00:50:23;9.30;99.90
37412;DHT22;23278;52.110;6.050;2023-11-21T00:52:49;9.30;99.90
37412;DHT22;23278;52.110;6.050;2023-11-21T00:55:17;9.20;99.90
37412;DHT22;23278;52.110;6.050;2023-11-21T00:57:43;9.20;99.90
37412;DHT22;23278;52.110;6.050;2023-11-21T01:00:10;9.20;99.90
37412;DHT22;23278;52.110;6.050;2023-11-21T01:02:45;9.20;99.90
37412;DHT22;23278;52.110;6.050;2023-11-21T01:05:11;9.10;99.90
37412;DHT22;23278;52.110;6.050;2023-11-21T01:07:37;9.10;99.90
37412;DHT22;23278;52.110;6.050;2023-11-21T01:10:03;9.10;99.90
37412;DHT22;23278;52.110;6.050;2023-11-21T01:12:35;9.10;99.90
37412;DHT22;23278;52.110;6.050;2023-11-21T01:15:02;9.10;99.90
37412;DHT22;23278;52.110;6.050;2023-11-21T01:17:28;9.10;99.90
37412;DHT22;23278;52.110;6.050;2023-11-21T01:19:54;9.00;99.90
37412;DHT22;23278;52.110;6.050;2023-11-21T01:22:20;9.00;99.90
37412;DHT22;23278;52.110;6.050;2023-11-21T01:24:54;9.00;99.90
37412;DHT22;23278;52.110;6.050;2023-11-21T01:27:21;8.90;99.90
37412;DHT22;23278;52.110;6.050;2023-11-21T01:29:47;9.00;99.90
37412;DHT22;23278;52.110;6.050;2023-11-21T01:32:13;9.10;99.90
37412;DHT22;23278;52.110;6.050;2023-11-21T01:34:39;9.10;99.90
37412;DHT22;23278;52.110;6.050;2023-11-21T01:37:05;9.10;99.90
37412;DHT22;23278;52.110;6.050;2023-11-21T01:39:31;9.20;99.90
37412;DHT22;23278;52.110;6.050;2023-11-21T01:41:57;9.30;99.90
37412;DHT22;23278;52.110;6.050;2023-11-21T01:44:26;9.30;99.90
37412;DHT22;23278;52.110;6.050;2023-11-21T01:46:52;9.30;99.90
37412;DHT22;23278;52.110;6.050;2023-11-21T01:49:19;9.30;99.90
37412;DHT22;23278;52.110;6.050;2023-11-21T01:51:48;9.30;99.90
37412;DHT22;23278;52.110;6.050;2023-11-21T01:54:18;9.30;99.90
37412;DHT22;23278;52.110;6.050;2023-11-21T01:56:46;9.30;99.90
37412;DHT22;23278;52.110;6.050;2023-11-21T01:59:19;9.30;99.90
37412;DHT22;23278;52.110;6.050;2023-11-21T02:01:47;9.30;99.90
37412;DHT22;23278;52.110;6.050;2023-11-21T02:04:13;9.30;99.90
37412;DHT22;23278;52.110;6.050;2023-11-21T02:06:39;9.30;99.90
37412;DHT22;23278;52.110;6.050;2023-11-21T02:09:05;9.30;99.90
37412;DHT22;23278;52.110;6.050;2023-11-21T02:11:32;9.30;99.90
37412;DHT22;23278;52.110;6.050;2023-11-21T02:14:01;9.30;99.90
37412;DHT22;23278;52.110;6.050;2023-11-21T02:16:27;9.30;99.90
37412;DHT22;23278;52.110;6.050;2023-11-21T02:18:57;9.20;99.90
37412;DHT22;23278;52.110;6.050;2023-11-21T02:21:25;9.20;99.90
37412;DHT22;23278;52.110;6.050;2023-11-21T02:23:51;9.20;99.90
37412;DHT22;23278;52.110;6.050;2023-11-21T02:26:17;9.30;99.90
37412;DHT22;23278;52.110;6.050;2023-11-21T02:28:43;9.30;99.90
37412;DHT22;23278;52.110;6.050;2023-11-21T02:31:08;9.40;99.90
37412;DHT22;23278;52.110;6.050;2023-11-21T02:33:34;9.40;99.90
37412;DHT22;23278;52.110;6.050;2023-11-21T02:36:01;9.40;99.90
37412;DHT22;23278;52.110;6.050;2023-11-21T02:38:27;9.40;99.90
37412;DHT22;23278;52.110;6.050;2023-11-21T02:40:53;9.40;99.90
37412;DHT22;23278;52.110;6.050;2023-11-21T02:43:19;9.40;99.90
37412;DHT22;23278;52.110;6.050;2023-11-21T02:45:45;9.40;99.90
37412;DHT22;23278;52.110;6.050;2023-11-21T02:48:12;9.40;99.90
37412;DHT22;23278;52.110;6.050;2023-11-21T02:50:38;9.40;99.90
37412;DHT22;23278;52.110;6.050;2023-11-21T02:53:04;9.40;99.90
37412;DHT22;23278;52.110;6.050;2023-11-21T02:55:31;9.40;99.90
37412;DHT22;23278;52.110;6.050;2023-11-21T02:58:00;9.40;99.90
37412;DHT22;23278;52.110;6.050;2023-11-21T03:00:27;9.40;99.90
37412;DHT22;23278;52.110;6.050;2023-11-21T03:02:56;9.40;99.90
37412;DHT22;23278;52.110;6.050;2023-11-21T03:05:22;9.50;99.90
37412;DHT22;23278;52.110;6.050;2023-11-21T03:07:48;9.50;99.90
37412;DHT22;23278;52.110;6.050;2023-11-21T03:10:14;9.50;99.90
37412;DHT22;23278;52.110;6.050;2023-11-21T03:12:40;9.50;99.90
37412;DHT22;23278;52.110;6.050;2023-11-21T03:15:07;9.50;99.90
37412;DHT22;23278;52.110;6.050;2023-11-21T03:17:33;9.50;99.90
37412;DHT22;23278;52.110;6.050;2023-11-21T03:20:04;9.50;99.90
37412;DHT22;23278;52.110;6.050;2023-11-21T03:22:30;9.50;99.90
37412;DHT22;23278;52.110;6.050;2023-11-21T03:24:55;9.50;99.90
37412;DHT22;23278;52.110;6.050;2023-11-21T03:27:21;9.60;99.90
37412;DHT22;23278;52.110;6.050;2023-11-21T03:29:48;9.60;99.90
37412;DHT22;23278;52.110;6.050;2023-11-21T03:32:15;9.70;99.90
37412;DHT22;23278;52.110;6.050;2023-11-21T03:34:58;9.70;99.90
37412;DHT22;23278;52.110;6.050;2023-11-21T03:37:24;9.80;99.90
37412;DHT22;23278;52.110;6.050;2023-11-21T03:39:50;9.80;99.90
37412;DHT22;23278;52.110;6.050;2023-11-21T03:42:16;9.80;99.90
37412;DHT22;23278;52.110;6.050;2023-11-21T03:44:42;9.90;99.90
37412;DHT22;23278;52.110;6.050;2023-11-21T03:47:08;9.90;99.90
37412;DHT22;23278;52.110;6.050;2023-11-21T03:49:34;9.90;99.90
37412;DHT22;23278;52.110;6.050;2023-11-21T03:52:00;9.90;99.90
37412;DHT22;23278;52.110;6.050;2023-11-21T03:54:26;10.00;99.90
37412;DHT22;23278;52.110;6.050;2023-11-21T03:56:52;10.00;99.90
37412;DHT22;23278;52.110;6.050;2023-11-21T03:59:17;10.00;99.90
37412;DHT22;23278;52.110;6.050;2023-11-21T04:01:43;10.00;99.90
37412;DHT22;23278;52.110;6.050;2023-11-21T04:04:09;9.90;99.90
37412;DHT22;23278;52.110;6.050;2023-11-21T04:06:35;9.90;99.90
37412;DHT22;23278;52.110;6.050;2023-11-21T04:09:02;10.00;99.90
37412;DHT22;23278;52.110;6.050;2023-11-21T04:11:30;10.00;99.90
37412;DHT22;23278;52.110;6.050;2023-11-21T04:13:56;10.00;99.90
37412;DHT22;23278;52.110;6.050;2023-11-21T04:16:22;10.00;99.90
37412;DHT22;23278;52.110;6.050;2023-11-21T04:18:47;10.10;99.90
37412;DHT22;23278;52.110;6.050;2023-11-21T04:21:13;10.10;99.90
37412;DHT22;23278;52.110;6.050;2023-11-21T04:23:39;10.10;99.90
37412;DHT22;23278;52.110;6.050;2023-11-21T04:26:06;10.10;99.90
37412;DHT22;23278;52.110;6.050;2023-11-21T04:28:32;10.10;99.90
37412;DHT22;23278;52.110;6.050;2023-11-21T04:30:58;10.10;99.90
37412;DHT22;23278;52.110;6.050;2023-11-21T04:33:24;10.10;99.90
37412;DHT22;23278;52.110;6.050;2023-11-21T04:35:51;10.10;99.90
37412;DHT22;23278;52.110;6.050;2023-11-21T04:38:17;10.20;99.90
37412;DHT22;23278;52.110;6.050;2023-11-21T04:40:44;10.20;99.90
37412;DHT22;23278;52.110;6.050;2023-11-21T04:43:10;10.20;99.90
37412;DHT22;23278;52.110;6.050;2023-11-21T04:45:36;10.20;99.90
37412;DHT22;23278;52.110;6.050;2023-11-21T04:48:02;10.20;99.90
37412;DHT22;23278;52.110;6.050;2023-11-21T04:50:28;10.20;99.90
37412;DHT22;23278;52.110;6.050;2023-11-21T04:52:53;10.20;99.90
37412;DHT22;23278;52.110;6.050;2023-11-21T04:55:19;10.20;99.90
37412;DHT22;23278;52.110;6.050;2023-11-21T04:57:45;10.20;99.90
37412;DHT22;23278;52.110;6.050;2023-11-21T05:00:13;10.20;99.90
37412;DHT22;23278;52.110;6.050;2023-11-21T05:02:40;10.20;99.90
37412;DHT22;23278;52.110;6.050;2023-11-21T05:05:07;10.30;99.90
37412;DHT22;23278;52.110;6.050;2023-11-21T05:07:36;10.30;99.90
37412;DHT22;23278;52.110;6.050;2023-11-21T05:10:04;10.20;99.90
37412;DHT22;23278;52.110;6.050;2023-11-21T05:12:33;10.20;99.90
37412;DHT22;23278;52.110;6.050;2023-11-21T05:15:04;10.20;99.90
37412;DHT22;23278;52.110;6.050;2023-11-21T05:17:33;10.30;99.90
37412;DHT22;23278;52.110;6.050;2023-11-21T05:20:00;10.30;99.90
37412;DHT22;23278;52.110;6.050;2023-11-21T05:22:34;10.30;99.90
37412;DHT22;23278;52.110;6.050;2023-11-21T05:25:00;10.30;99.90
37412;DHT22;23278;52.110;6.050;2023-11-21T05:27:26;10.30;99.90
37412;DHT22;23278;52.110;6.050;2023-11-21T05:29:52;10.30;99.90
37412;DHT22;23278;52.110;6.050;2023-11-21T05:32:18;10.30;99.90
37412;DHT22;23278;52.110;6.050;2023-11-21T05:34:44;10.30;99.90
37412;DHT22;23278;52.110;6.050;2023-11-21T05:37:10;10.40;99.90
37412;DHT22;23278;52.110;6.050;2023-11-21T05:39:36;10.40;99.90
37412;DHT22;23278;52.110;6.050;2023-11-21T05:42:02;10.40;99.90
37412;DHT22;23278;52.110;6.050;2023-11-21T05:44:29;10.50;99.90
37412;DHT22;23278;52.110;6.050;2023-11-21T05:46:55;10.50;99.90
37412;DHT22;23278;52.110;6.050;2023-11-21T05:49:21;10.50;99.90
37412;DHT22;23278;52.110;6.050;2023-11-21T05:51:47;10.50;99.90
37412;DHT22;23278;52.110;6.050;2023-11-21T05:54:13;10.50;99.90
37412;DHT22;23278;52.110;6.050;2023-11-21T05:56:39;10.50;99.90
37412;DHT22;23278;52.110;6.050;2023-11-21T05:59:05;10.50;99.90
37412;DHT22;23278;52.110;6.050;2023-11-21T06:01:32;10.60;99.90
37412;DHT22;23278;52.110;6.050;2023-11-21T06:03:58;10.50;99.90
37412;DHT22;23278;52.110;6.050;2023-11-21T06:06:24;10.50;99.90
37412;DHT22;23278;52.110;6.050;2023-11-21T06:08:51;10.50;99.90
37412;DHT22;23278;52.110;6.050;2023-11-21T06:11:17;10.50;99.90
37412;DHT22;23278;52.110;6.050;2023-11-21T06:13:44;10.50;99.90
37412;DHT22;23278;52.110;6.050;2023-11-21T06:16:10;10.50;99.90
37412;DHT22;23278;52.110;6.050;2023-11-21T06:18:36;10.50;99.90
37412;DHT22;23278;52.110;6.050;2023-11-21T06:21:02;10.50;99.90
37412;DHT22;23278;52.110;6.050;2023-11-21T06:23:28;10.50;99.90
37412;DHT22;23278;52.110;6.050;2023-11-21T06:25:53;10.50;99.90
37412;DHT22;23278;52.110;6.050;2023-11-21T06:28:19;10.50;99.90
37412;DHT22;23278;52.110;6.050;2023-11-21T06:30:45;10.50;99.90
37412;DHT22;23278;52.110;6.050;2023-11-21T06:33:11;10.50;99.90
37412;DHT22;23278;52.110;6.050;2023-11-21T06:35:37;10.50;99.90
37412;DHT22;23278;52.110;6.050;2023-11-21T06:38:03;10.60;99.90
37412;DHT22;23278;52.110;6.050;2023-11-21T06:40:29;10.50;99.90
37412;DHT22;23278;52.110;6.050;2023-11-21T06:42:54;10.50;99.90
37412;DHT22;23278;52.110;6.050;2023-11-21T06:45:20;10.50;99.90
37412;DHT22;23278;52.110;6.050;2023-11-21T06:47:47;10.50;99.90
37412;DHT22;23278;52.110;6.050;2023-11-21T06:50:13;10.50;99.90
37412;DHT22;23278;52.110;6.050;2023-11-21T06:52:39;10.50;99.90
37412;DHT22;23278;52.110;6.050;2023-11-21T06:55:05;10.50;99.90
37412;DHT22;23278;52.110;6.050;2023-11-21T06:57:34;10.50;99.90
37412;DHT22;23278;52.110;6.050;2023-11-21T07:00:00;10.50;99.90
37412;DHT22;23278;52.110;6.050;2023-11-21T07:02:26;10.50;99.90
37412;DHT22;23278;52.110;6.050;2023-11-21T07:04:52;10.50;99.90
37412;DHT22;23278;52.110;6.050;2023-11-21T07:07:19;10.50;99.90
37412;DHT22;23278;52.110;6.050;2023-11-21T07:09:45;10.50;99.90
37412;DHT22;23278;52.110;6.050;2023-11-21T07:12:11;10.50;99.90
37412;DHT22;23278;52.110;6.050;2023-11-21T07:14:37;10.50;99.90
37412;DHT22;23278;52.110;6.050;2023-11-21T07:17:04;10.60;99.90
37412;DHT22;23278;52.110;6.050;2023-11-21T07:19:30;10.60;99.90
37412;DHT22;23278;52.110;6.050;2023-11-21T07:21:56;10.60;99.90
37412;DHT22;23278;52.110;6.050;2023-11-21T07:24:22;10.70;99.90
37412;DHT22;23278;52.110;6.050;2023-11-21T07:26:48;10.70;99.90
37412;DHT22;23278;52.110;6.050;2023-11-21T07:29:14;10.70;99.90
37412;DHT22;23278;52.110;6.050;2023-11-21T07:31:40;10.70;99.90
37412;DHT22;23278;52.110;6.050;2023-11-21T07:34:07;10.70;99.90
37412;DHT22;23278;52.110;6.050;2023-11-21T07:36:34;10.80;99.90
37412;DHT22;23278;52.110;6.050;2023-11-21T07:39:00;10.80;99.90
37412;DHT22;23278;52.110;6.050;2023-11-21T07:41:27;10.80;99.90
37412;DHT22;23278;52.110;6.050;2023-11-21T07:43:55;10.80;99.90
37412;DHT22;23278;52.110;6.050;2023-11-21T07:46:21;10.80;99.90
37412;DHT22;23278;52.110;6.050;2023-11-21T07:48:48;10.90;99.90
37412;DHT22;23278;52.110;6.050;2023-11-21T07:51:14;10.90;99.90
37412;DHT22;23278;52.110;6.050;2023-11-21T07:53:40;10.90;99.90
37412;DHT22;23278;52.110;6.050;2023-11-21T07:56:07;10.90;99.90
37412;DHT22;23278;52.110;6.050;2023-11-21T07:58:35;11.00;99.90
37412;DHT22;23278;52.110;6.050;2023-11-21T08:01:02;11.00;99.90
37412;DHT22;23278;52.110;6.050;2023-11-21T08:03:28;11.00;99.90
37412;DHT22;23278;52.110;6.050;2023-11-21T08:05:58;11.00;99.90
37412;DHT22;23278;52.110;6.050;2023-11-21T08:08:24;11.10;99.90
37412;DHT22;23278;52.110;6.050;2023-11-21T08:10:52;11.10;99.90
37412;DHT22;23278;52.110;6.050;2023-11-21T08:13:25;11.10;99.90
37412;DHT22;23278;52.110;6.050;2023-11-21T08:15:53;11.10;99.90
37412;DHT22;23278;52.110;6.050;2023-11-21T08:18:19;11.10;99.90
37412;DHT22;23278;52.110;6.050;2023-11-21T08:20:46;11.20;99.90
37412;DHT22;23278;52.110;6.050;2023-11-21T08:23:14;11.20;99.90
37412;DHT22;23278;52.110;6.050;2023-11-21T08:25:44;11.20;99.90
37412;DHT22;23278;52.110;6.050;2023-11-21T08:28:10;11.20;99.90
37412;DHT22;23278;52.110;6.050;2023-11-21T08:30:36;11.20;99.90
37412;DHT22;23278;52.110;6.050;2023-11-21T08:33:02;11.20;99.90
37412;DHT22;23278;52.110;6.050;2023-11-21T08:35:29;11.20;99.90
37412;DHT22;23278;52.110;6.050;2023-11-21T08:37:55;11.20;99.90
37412;DHT22;23278;52.110;6.050;2023-11-21T08:40:21;11.30;99.90
37412;DHT22;23278;52.110;6.050;2023-11-21T08:42:47;11.30;99.90
37412;DHT22;23278;52.110;6.050;2023-11-21T08:45:14;11.30;99.90
37412;DHT22;23278;52.110;6.050;2023-11-21T08:47:40;11.30;99.90
37412;DHT22;23278;52.110;6.050;2023-11-21T08:50:07;11.30;99.90
37412;DHT22;23278;52.110;6.050;2023-11-21T08:52:34;11.30;99.90
37412;DHT22;23278;52.110;6.050;2023-11-21T08:55:00;11.30;99.90
37412;DHT22;23278;52.110;6.050;2023-11-21T08:57:36;11.30;99.90
37412;DHT22;23278;52.110;6.050;2023-11-21T09:00:06;11.30;99.90
37412;DHT22;23278;52.110;6.050;2023-11-21T09:02:43;11.30;99.90
37412;DHT22;23278;52.110;6.050;2023-11-21T09:05:10;11.40;99.90
37412;DHT22;23278;52.110;6.050;2023-11-21T09:07:38;11.40;99.90
37412;DHT22;23278;52.110;6.050;2023-11-21T09:10:04;11.40;99.90
37412;DHT22;23278;52.110;6.050;2023-11-21T09:12:34;11.50;99.90
37412;DHT22;23278;52.110;6.050;2023-11-21T09:15:04;11.60;99.90
37412;DHT22;23278;52.110;6.050;2023-11-21T09:17:34;11.60;99.90
37412;DHT22;23278;52.110;6.050;2023-11-21T09:20:00;11.60;99.90
37412;DHT22;23278;52.110;6.050;2023-11-21T09:22:26;11.60;99.90
37412;DHT22;23278;52.110;6.050;2023-11-21T09:24:55;11.60;99.90
37412;DHT22;23278;52.110;6.050;2023-11-21T09:27:24;11.60;99.90
37412;DHT22;23278;52.110;6.050;2023-11-21T09:29:51;11.60;99.90
37412;DHT22;23278;52.110;6.050;2023-11-21T09:32:18;11.70;99.90
37412;DHT22;23278;52.110;6.050;2023-11-21T09:34:44;11.70;99.90
37412;DHT22;23278;52.110;6.050;2023-11-21T09:37:10;11.70;99.90
37412;DHT22;23278;52.110;6.050;2023-11-21T09:39:36;11.80;99.90
37412;DHT22;23278;52.110;6.050;2023-11-21T09:44:45;11.90;99.90
37412;DHT22;23278;52.110;6.050;2023-11-21T09:47:15;11.90;99.90
37412;DHT22;23278;52.110;6.050;2023-11-21T09:49:48;11.90;99.90
37412;DHT22;23278;52.110;6.050;2023-11-21T09:52:23;12.00;99.90
37412;DHT22;23278;52.110;6.050;2023-11-21T09:54:53;12.00;99.90
37412;DHT22;23278;52.110;6.050;2023-11-21T09:57:23;12.10;99.90
37412;DHT22;23278;52.110;6.050;2023-11-21T09:59:53;12.20;99.90
37412;DHT22;23278;52.110;6.050;2023-11-21T10:02:28;12.30;99.90
37412;DHT22;23278;52.110;6.050;2023-11-21T10:04:56;12.50;99.90
37412;DHT22;23278;52.110;6.050;2023-11-21T10:07:23;12.40;99.90
37412;DHT22;23278;52.110;6.050;2023-11-21T10:09:51;12.40;99.90
37412;DHT22;23278;52.110;6.050;2023-11-21T10:12:17;12.40;99.90
37412;DHT22;23278;52.110;6.050;2023-11-21T10:14:43;12.40;99.90
37412;DHT22;23278;52.110;6.050;2023-11-21T10:17:12;12.40;99.90
37412;DHT22;23278;52.110;6.050;2023-11-21T10:19:42;12.40;99.90
37412;DHT22;23278;52.110;6.050;2023-11-21T10:22:09;12.40;99.90
37412;DHT22;23278;52.110;6.050;2023-11-21T10:24:35;12.40;99.90
37412;DHT22;23278;52.110;6.050;2023-11-21T10:27:03;12.40;99.90
37412;DHT22;23278;52.110;6.050;2023-11-21T10:29:29;12.30;99.90
37412;DHT22;23278;52.110;6.050;2023-11-21T10:31:56;12.30;99.90
37412;DHT22;23278;52.110;6.050;2023-11-21T10:34:24;12.30;99.90
37412;DHT22;23278;52.110;6.050;2023-11-21T10:36:50;12.30;99.90
37412;DHT22;23278;52.110;6.050;2023-11-21T10:39:20;12.30;99.90
37412;DHT22;23278;52.110;6.050;2023-11-21T10:41:49;12.30;99.90
37412;DHT22;23278;52.110;6.050;2023-11-21T10:44:17;12.30;99.90
37412;DHT22;23278;52.110;6.050;2023-11-21T10:46:50;12.30;99.90
37412;DHT22;23278;52.110;6.050;2023-11-21T10:49:18;12.30;99.90
37412;DHT22;23278;52.110;6.050;2023-11-21T10:51:44;12.20;99.90
37412;DHT22;23278;52.110;6.050;2023-11-21T10:54:10;12.20;99.90
37412;DHT22;23278;52.110;6.050;2023-11-21T10:56:39;12.20;99.90
37412;DHT22;23278;52.110;6.050;2023-11-21T10:59:10;12.10;99.90
37412;DHT22;23278;52.110;6.050;2023-11-21T11:01:46;12.10;99.90
37412;DHT22;23278;52.110;6.050;2023-11-21T11:04:14;12.10;99.90
37412;DHT22;23278;52.110;6.050;2023-11-21T11:06:43;12.10;99.90
37412;DHT22;23278;52.110;6.050;2023-11-21T11:09:13;12.10;99.90
37412;DHT22;23278;52.110;6.050;2023-11-21T11:11:43;12.00;99.90
37412;DHT22;23278;52.110;6.050;2023-11-21T11:14:11;12.10;99.90
37412;DHT22;23278;52.110;6.050;2023-11-21T11:16:39;12.00;99.90
37412;DHT22;23278;52.110;6.050;2023-11-21T11:19:07;11.90;99.90
37412;DHT22;23278;52.110;6.050;2023-11-21T11:27:52;11.80;99.90
37412;DHT22;23278;52.110;6.050;2023-11-21T11:30:46;11.80;99.90
37412;DHT22;23278;52.110;6.050;2023-11-21T11:36:06;11.70;99.90
37412;DHT22;23278;52.110;6.050;2023-11-21T11:38:34;11.70;99.90
37412;DHT22;23278;52.110;6.050;2023-11-21T11:41:02;11.70;99.90
37412;DHT22;23278;52.110;6.050;2023-11-21T11:43:30;11.60;99.90
37412;DHT22;23278;52.110;6.050;2023-11-21T11:45:59;11.60;99.90
37412;DHT22;23278;52.110;6.050;2023-11-21T11:48:25;11.70;99.90
37412;DHT22;23278;52.110;6.050;2023-11-21T11:51:09;11.70;99.90
37412;DHT22;23278;52.110;6.050;2023-11-21T11:53:40;11.70;99.90
37412;DHT22;23278;52.110;6.050;2023-11-21T11:58:49;11.70;99.90
37412;DHT22;23278;52.110;6.050;2023-11-21T12:01:18;11.70;99.90
37412;DHT22;23278;52.110;6.050;2023-11-21T12:03:44;11.60;99.90
37412;DHT22;23278;52.110;6.050;2023-11-21T12:06:10;11.60;99.90
37412;DHT22;23278;52.110;6.050;2023-11-21T12:08:38;11.60;99.90
37412;DHT22;23278;52.110;6.050;2023-11-21T12:11:05;11.60;99.90
37412;DHT22;23278;52.110;6.050;2023-11-21T12:13:31;11.60;99.90
37412;DHT22;23278;52.110;6.050;2023-11-21T12:15:58;11.70;99.90
37412;DHT22;23278;52.110;6.050;2023-11-21T12:18:24;11.80;99.90
37412;DHT22;23278;52.110;6.050;2023-11-21T12:20:52;11.90;99.90
37412;DHT22;23278;52.110;6.050;2023-11-21T12:23:17;11.90;99.90
37412;DHT22;23278;52.110;6.050;2023-11-21T12:25:43;12.00;99.90
37412;DHT22;23278;52.110;6.050;2023-11-21T12:28:09;12.00;99.90
37412;DHT22;23278;52.110;6.050;2023-11-21T12:30:36;12.00;99.90
37412;DHT22;23278;52.110;6.050;2023-11-21T12:33:04;11.90;99.90
37412;DHT22;23278;52.110;6.050;2023-11-21T12:35:32;11.90;99.90
37412;DHT22;23278;52.110;6.050;2023-11-21T12:38:02;11.90;99.90
37412;DHT22;23278;52.110;6.050;2023-11-21T12:40:31;11.90;99.90
37412;DHT22;23278;52.110;6.050;2023-11-21T12:42:59;11.90;99.90
37412;DHT22;23278;52.110;6.050;2023-11-21T12:45:26;11.90;99.90
37412;DHT22;23278;52.110;6.050;2023-11-21T12:47:57;11.90;99.90
37412;DHT22;23278;52.110;6.050;2023-11-21T12:50:30;11.80;99.90
37412;DHT22;23278;52.110;6.050;2023-11-21T12:53:04;11.90;99.90
37412;DHT22;23278;52.110;6.050;2023-11-21T12:55:34;11.80;99.90
37412;DHT22;23278;52.110;6.050;2023-11-21T12:58:07;11.90;99.90
37412;DHT22;23278;52.110;6.050;2023-11-21T13:00:39;11.90;99.90
37412;DHT22;23278;52.110;6.050;2023-11-21T13:03:06;11.90;99.90
37412;DHT22;23278;52.110;6.050;2023-11-21T13:05:34;11.90;99.90
37412;DHT22;23278;52.110;6.050;2023-11-21T13:08:04;11.90;99.90
37412;DHT22;23278;52.110;6.050;2023-11-21T13:10:34;11.90;99.90
37412;DHT22;23278;52.110;6.050;2023-11-21T13:13:04;12.00;99.90
37412;DHT22;23278;52.110;6.050;2023-11-21T13:15:51;12.00;99.90
37412;DHT22;23278;52.110;6.050;2023-11-21T13:18:18;11.90;99.90
37412;DHT22;23278;52.110;6.050;2023-11-21T13:20:44;11.70;99.90
37412;DHT22;23278;52.110;6.050;2023-11-21T13:23:11;11.60;99.90
37412;DHT22;23278;52.110;6.050;2023-11-21T13:25:38;11.40;99.90
37412;DHT22;23278;52.110;6.050;2023-11-21T13:28:07;11.30;99.90
37412;DHT22;23278;52.110;6.050;2023-11-21T13:30:33;11.20;99.90
37412;DHT22;23278;52.110;6.050;2023-11-21T13:33:03;11.10;99.90
37412;DHT22;23278;52.110;6.050;2023-11-21T13:35:37;11.00;99.90
37412;DHT22;23278;52.110;6.050;2023-11-21T13:38:08;11.00;99.90
37412;DHT22;23278;52.110;6.050;2023-11-21T13:40:35;10.90;99.90
37412;DHT22;23278;52.110;6.050;2023-11-21T13:43:13;10.90;99.90
37412;DHT22;23278;52.110;6.050;2023-11-21T13:45:40;10.90;99.90
37412;DHT22;23278;52.110;6.050;2023-11-21T13:48:07;10.90;99.90
37412;DHT22;23278;52.110;6.050;2023-11-21T13:50:37;11.00;99.90
37412;DHT22;23278;52.110;6.050;2023-11-21T13:53:03;11.00;99.90
37412;DHT22;23278;52.110;6.050;2023-11-21T13:55:46;11.00;99.90
37412;DHT22;23278;52.110;6.050;2023-11-21T13:58:13;11.10;99.90
37412;DHT22;23278;52.110;6.050;2023-11-21T14:00:45;11.10;99.90
37412;DHT22;23278;52.110;6.050;2023-11-21T14:03:12;11.20;99.90
37412;DHT22;23278;52.110;6.050;2023-11-21T14:05:50;11.20;99.90
37412;DHT22;23278;52.110;6.050;2023-11-21T14:08:20;11.30;99.90
37412;DHT22;23278;52.110;6.050;2023-11-21T14:10:50;11.20;99.90
37412;DHT22;23278;52.110;6.050;2023-11-21T14:13:21;11.30;99.90
37412;DHT22;23278;52.110;6.050;2023-11-21T14:15:49;11.30;99.90
37412;DHT22;23278;52.110;6.050;2023-11-21T14:18:17;11.30;99.90
37412;DHT22;23278;52.110;6.050;2023-11-21T14:20:51;11.30;99.90
37412;DHT22;23278;52.110;6.050;2023-11-21T14:23:17;11.30;99.90
37412;DHT22;23278;52.110;6.050;2023-11-21T14:25:43;11.30;99.90
37412;DHT22;23278;52.110;6.050;2023-11-21T14:28:09;11.30;99.90
37412;DHT22;23278;52.110;6.050;2023-11-21T14:30:38;11.20;99.90
37412;DHT22;23278;52.110;6.050;2023-11-21T14:33:05;11.10;99.90
37412;DHT22;23278;52.110;6.050;2023-11-21T14:35:34;11.00;99.90
37412;DHT22;23278;52.110;6.050;2023-11-21T14:38:00;10.90;99.90
37412;DHT22;23278;52.110;6.050;2023-11-21T14:40:28;10.90;99.90
37412;DHT22;23278;52.110;6.050;2023-11-21T14:42:59;10.80;99.90
37412;DHT22;23278;52.110;6.050;2023-11-21T14:45:26;10.70;99.90
37412;DHT22;23278;52.110;6.050;2023-11-21T14:47:52;10.70;99.90
37412;DHT22;23278;52.110;6.050;2023-11-21T14:50:35;10.60;99.90
37412;DHT22;23278;52.110;6.050;2023-11-21T14:53:04;10.50;99.90
37412;DHT22;23278;52.110;6.050;2023-11-21T14:55:35;10.40;99.90
37412;DHT22;23278;52.110;6.050;2023-11-21T14:58:03;10.30;99.90
37412;DHT22;23278;52.110;6.050;2023-11-21T15:00:29;10.30;99.90
37412;DHT22;23278;52.110;6.050;2023-11-21T15:03:02;10.20;99.90
37412;DHT22;23278;52.110;6.050;2023-11-21T15:05:29;10.20;99.90
37412;DHT22;23278;52.110;6.050;2023-11-21T15:07:56;10.20;99.90
37412;DHT22;23278;52.110;6.050;2023-11-21T15:10:30;10.20;99.90
37412;DHT22;23278;52.110;6.050;2023-11-21T15:13:10;10.20;99.90
37412;DHT22;23278;52.110;6.050;2023-11-21T15:15:36;10.10;99.90
37412;DHT22;23278;52.110;6.050;2023-11-21T15:18:04;10.10;99.90
37412;DHT22;23278;52.110;6.050;2023-11-21T15:20:29;10.00;99.90
37412;DHT22;23278;52.110;6.050;2023-11-21T15:22:56;10.00;99.90
37412;DHT22;23278;52.110;6.050;2023-11-21T15:25:22;9.90;99.90
37412;DHT22;23278;52.110;6.050;2023-11-21T15:27:49;9.90;99.90
37412;DHT22;23278;52.110;6.050;2023-11-21T15:30:16;9.90;99.90
37412;DHT22;23278;52.110;6.050;2023-11-21T15:32:46;9.90;99.90
37412;DHT22;23278;52.110;6.050;2023-11-21T15:35:12;9.90;99.90
37412;DHT22;23278;52.110;6.050;2023-11-21T15:37:40;9.80;99.90
37412;DHT22;23278;52.110;6.050;2023-11-21T15:40:07;9.80;99.90
37412;DHT22;23278;52.110;6.050;2023-11-21T15:42:34;9.70;99.90
37412;DHT22;23278;52.110;6.050;2023-11-21T15:45:02;9.70;99.90
37412;DHT22;23278;52.110;6.050;2023-11-21T15:47:30;9.70;99.90
37412;DHT22;23278;52.110;6.050;2023-11-21T15:49:56;9.70;99.90
37412;DHT22;23278;52.110;6.050;2023-11-21T15:52:22;9.70;99.90